Time;durP1;ratioP1;P1;durP2;ratioP2;P2;SDS_P1;SDS_P2;PMS_P1;PMS_P2;Temp;Humidity;BMP_temperature;BMP_pressure;BME280_temperature;BME280_humidity;BME280_pressure;Samples;Min_cycle;Max_cycle;Signal;HPM_P1;HPM_P2
2021/07/11 00:01:10;;;;;;;1.83;1.83;;;;;;;;;;4995398;28;20297;-79
2021/07/11 00:03:38;;;;;;;2.20;1.50;;;;;;;;;;4993521;28;20668;-78
2021/07/11 00:06:05;;;;;;;2.58;1.85;;;;;;;;;;4993845;28;20202;-78
2021/07/11 00:08:32;;;;;;;1.92;1.75;;;;;;;;;;4993816;28;20602;-78
2021/07/11 00:10:59;;;;;;;1.75;1.65;;;;;;;;;;4995254;28;20252;-78
2021/07/11 00:13:25;;;;;;;2.67;1.88;;;;;;;;;;4995218;28;20214;-78
2021/07/11 00:15:52;;;;;;;1.73;1.60;;;;;;;;;;4993676;28;20222;-77
2021/07/11 00:18:19;;;;;;;2.90;1.83;;;;;;;;;;4995136;28;20265;-78
2021/07/11 00:20:47;;;;;;;2.22;1.67;;;;;;;;;;4993435;28;20248;-78
2021/07/11 00:23:14;;;;;;;2.75;1.80;;;;;;;;;;4995116;28;20244;-78
2021/07/11 00:25:40;;;;;;;3.05;1.75;;;;;;;;;;4993440;28;20201;-78
2021/07/11 00:28:07;;;;;;;2.03;1.73;;;;;;;;;;4993342;28;20210;-78
2021/07/11 00:30:34;;;;;;;3.83;1.60;;;;;;;;;;4994906;28;20241;-79
2021/07/11 00:33:00;;;;;;;1.63;1.63;;;;;;;;;;4993607;28;20233;-78
2021/07/11 00:35:27;;;;;;;2.30;1.90;;;;;;;;;;4994746;28;20241;-78
2021/07/11 00:37:55;;;;;;;2.00;1.90;;;;;;;;;;4995080;28;20236;-78
2021/07/11 00:40:22;;;;;;;1.67;1.67;;;;;;;;;;4994515;28;20233;-78
2021/07/11 00:42:49;;;;;;;2.97;1.67;;;;;;;;;;4994685;28;20216;-78
2021/07/11 00:45:16;;;;;;;1.80;1.70;;;;;;;;;;4993436;28;20567;-78
2021/07/11 00:47:43;;;;;;;2.22;2.13;;;;;;;;;;4994426;28;20260;-78
2021/07/11 00:50:11;;;;;;;2.60;1.90;;;;;;;;;;4994467;28;20233;-78
2021/07/11 00:52:38;;;;;;;1.73;1.73;;;;;;;;;;4993962;28;20260;-80
2021/07/11 00:55:07;;;;;;;2.22;1.60;;;;;;;;;;4993833;28;20686;-79
2021/07/11 00:57:34;;;;;;;1.88;1.80;;;;;;;;;;4992467;28;20690;-78
2021/07/11 01:00:04;;;;;;;1.90;1.80;;;;;;;;;;4994093;28;20257;-78
2021/07/11 01:02:33;;;;;;;2.10;2.00;;;;;;;;;;4992365;28;20225;-78
2021/07/11 01:05:02;;;;;;;2.88;2.30;;;;;;;;;;4992583;28;20213;-78
2021/07/11 01:07:32;;;;;;;3.72;2.17;;;;;;;;;;4994254;28;20241;-78
2021/07/11 01:10:03;;;;;;;1.83;1.70;;;;;;;;;;4992720;28;20209;-79
2021/07/11 01:12:32;;;;;;;2.10;2.00;;;;;;;;;;4993833;28;20251;-79
2021/07/11 01:15:00;;;;;;;3.38;1.85;;;;;;;;;;4994293;28;20555;-80
2021/07/11 01:17:27;;;;;;;6.07;2.20;;;;;;;;;;4992651;28;20225;-78
2021/07/11 01:20:03;;;;;;;2.50;2.07;;;;;;;;;;4993828;28;20241;-78
2021/07/11 01:22:32;;;;;;;2.10;2.05;;;;;;;;;;4994145;28;20232;-78
2021/07/11 01:25:01;;;;;;;2.10;2.00;;;;;;;;;;4993890;28;20248;-81
2021/07/11 01:27:29;;;;;;;2.17;2.07;;;;;;;;;;4994071;28;20244;-78
2021/07/11 01:29:57;;;;;;;3.33;2.50;;;;;;;;;;4993810;28;20237;-80
2021/07/11 01:32:25;;;;;;;2.40;2.30;;;;;;;;;;4993647;28;20352;-78
2021/07/11 01:34:52;;;;;;;2.57;2.43;;;;;;;;;;4993919;28;20237;-81
2021/07/11 01:37:19;;;;;;;5.17;2.40;;;;;;;;;;4994020;28;20661;-78
2021/07/11 01:39:46;;;;;;;5.97;2.40;;;;;;;;;;4993777;28;20225;-81
2021/07/11 01:42:14;;;;;;;2.97;2.67;;;;;;;;;;4993078;28;20230;-80
2021/07/11 01:44:42;;;;;;;2.55;2.35;;;;;;;;;;4993111;28;20217;-80
2021/07/11 01:47:09;;;;;;;3.10;2.63;;;;;;;;;;4991971;28;20241;-80
2021/07/11 01:49:36;;;;;;;3.63;2.80;;;;;;;;;;4993225;28;20575;-80
2021/07/11 01:52:04;;;;;;;2.70;2.50;;;;;;;;;;4993389;28;20257;-78
2021/07/11 01:54:30;;;;;;;2.23;2.10;;;;;;;;;;4993350;28;20182;-80
2021/07/11 01:56:57;;;;;;;2.80;2.57;;;;;;;;;;4993219;28;20217;-80
2021/07/11 01:59:24;;;;;;;4.63;2.67;;;;;;;;;;4993655;28;20202;-80
2021/07/11 02:01:52;;;;;;;6.33;2.73;;;;;;;;;;4993326;28;20257;-80
2021/07/11 02:04:19;;;;;;;5.50;2.60;;;;;;;;;;4993323;28;20186;-78
2021/07/11 02:06:45;;;;;;;2.97;2.30;;;;;;;;;;4993221;28;20252;-80
2021/07/11 02:09:12;;;;;;;6.63;2.80;;;;;;;;;;4991867;28;20256;-80
2021/07/11 02:11:39;;;;;;;2.77;2.50;;;;;;;;;;4993372;28;20213;-80
2021/07/11 02:14:08;;;;;;;3.45;2.50;;;;;;;;;;4993029;28;20241;-78
2021/07/11 02:16:37;;;;;;;3.30;2.67;;;;;;;;;;4991541;28;20263;-81
2021/07/11 02:19:07;;;;;;;4.63;2.70;;;;;;;;;;4993155;28;20804;-81
2021/07/11 02:21:33;;;;;;;3.23;2.33;;;;;;;;;;4991775;28;20244;-81
2021/07/11 02:24:02;;;;;;;6.27;2.73;;;;;;;;;;4991593;28;20225;-81
2021/07/11 02:26:30;;;;;;;2.53;2.33;;;;;;;;;;4993302;28;20218;-80
2021/07/11 02:28:57;;;;;;;3.40;2.70;;;;;;;;;;4993212;28;20237;-81
2021/07/11 02:31:27;;;;;;;5.60;2.90;;;;;;;;;;4991384;28;20202;-81
2021/07/11 02:33:54;;;;;;;2.73;2.53;;;;;;;;;;4992829;28;20618;-81
2021/07/11 02:36:24;;;;;;;5.67;2.83;;;;;;;;;;4991331;28;20241;-80
2021/07/11 02:38:53;;;;;;;5.43;2.53;;;;;;;;;;4992740;28;20263;-79
2021/07/11 02:41:21;;;;;;;3.87;2.80;;;;;;;;;;4992695;28;20237;-79
2021/07/11 02:43:48;;;;;;;3.30;2.37;;;;;;;;;;4991201;28;20224;-79
2021/07/11 02:46:17;;;;;;;4.77;2.70;;;;;;;;;;4993111;28;20541;-79
2021/07/11 02:48:44;;;;;;;2.60;2.40;;;;;;;;;;4992842;28;20206;-79
2021/07/11 02:51:12;;;;;;;5.10;2.40;;;;;;;;;;4991234;28;20283;-79
2021/07/11 02:53:43;;;;;;;3.07;2.40;;;;;;;;;;4992252;28;20703;-79
2021/07/11 02:56:10;;;;;;;6.67;2.80;;;;;;;;;;4992758;28;20732;-79
2021/07/11 02:58:37;;;;;;;8.03;2.80;;;;;;;;;;4992399;28;20233;-79
2021/07/11 03:01:03;;;;;;;8.50;3.37;;;;;;;;;;4992420;28;20265;-79
2021/07/11 03:03:31;;;;;;;2.60;2.40;;;;;;;;;;4992370;28;20244;-79
2021/07/11 03:05:57;;;;;;;3.13;2.30;;;;;;;;;;4991241;28;20629;-79
2021/07/11 03:08:24;;;;;;;2.53;2.40;;;;;;;;;;4992475;28;20241;-79
2021/07/11 03:10:52;;;;;;;8.13;2.60;;;;;;;;;;4991280;28;20194;-78
2021/07/11 03:13:19;;;;;;;3.77;2.60;;;;;;;;;;4990342;28;20658;-79
2021/07/11 03:15:46;;;;;;;9.87;2.67;;;;;;;;;;4992605;28;20205;-79
2021/07/11 03:18:13;;;;;;;3.53;2.20;;;;;;;;;;4992230;28;20209;-79
2021/07/11 03:20:41;;;;;;;2.67;2.40;;;;;;;;;;4992386;28;20226;-79
2021/07/11 03:23:08;;;;;;;4.60;2.50;;;;;;;;;;4992327;28;20244;-79
2021/07/11 03:25:34;;;;;;;3.00;2.43;;;;;;;;;;4992730;28;20662;-79
2021/07/11 03:28:06;;;;;;;4.83;2.87;;;;;;;;;;4993507;28;20209;-79
2021/07/11 03:30:37;;;;;;;4.40;2.53;;;;;;;;;;4994370;28;20205;-79
2021/07/11 03:33:05;;;;;;;3.40;2.63;;;;;;;;;;4995406;28;20566;-79
2021/07/11 03:35:33;;;;;;;4.10;2.70;;;;;;;;;;4996204;28;20539;-79
2021/07/11 03:38:00;;;;;;;3.73;3.00;;;;;;;;;;4996175;28;20237;-79
2021/07/11 03:40:28;;;;;;;3.70;3.00;;;;;;;;;;4996155;28;20217;-79
2021/07/11 03:42:56;;;;;;;7.40;3.30;;;;;;;;;;4994753;28;20747;-79
2021/07/11 03:45:24;;;;;;;3.90;3.47;;;;;;;;;;4994742;28;20287;-79
2021/07/11 03:47:53;;;;;;;9.57;3.53;;;;;;;;;;4995977;28;20228;-79
2021/07/11 03:50:21;;;;;;;3.30;2.60;;;;;;;;;;4994005;28;20517;-79
2021/07/11 03:52:49;;;;;;;3.73;3.07;;;;;;;;;;4994587;28;20316;-79
2021/07/11 03:55:17;;;;;;;3.13;2.93;;;;;;;;;;4994629;28;20585;-80
2021/07/11 03:57:46;;;;;;;10.57;3.30;;;;;;;;;;4994025;28;20213;-80
2021/07/11 04:00:15;;;;;;;6.07;3.00;;;;;;;;;;4995666;28;20241;-79
2021/07/11 04:02:43;;;;;;;9.23;3.03;;;;;;;;;;4995070;28;20280;-79
2021/07/11 04:05:10;;;;;;;4.77;3.80;;;;;;;;;;4996152;28;20241;-79
2021/07/11 04:07:37;;;;;;;3.47;2.80;;;;;;;;;;4994506;28;20209;-79
2021/07/11 04:10:05;;;;;;;3.93;3.00;;;;;;;;;;4994593;28;20250;-79
2021/07/11 04:12:32;;;;;;;3.47;3.10;;;;;;;;;;4995292;28;20240;-80
2021/07/11 04:14:59;;;;;;;3.33;3.03;;;;;;;;;;4994601;28;20255;-80
2021/07/11 04:17:27;;;;;;;8.67;3.10;;;;;;;;;;4993567;28;20213;-79
2021/07/11 04:19:56;;;;;;;3.97;3.10;;;;;;;;;;4994256;28;20202;-80
2021/07/11 04:22:24;;;;;;;3.60;3.00;;;;;;;;;;4993564;28;20252;-80
2021/07/11 04:24:52;;;;;;;7.20;3.50;;;;;;;;;;4995420;28;20923;-80
2021/07/11 04:27:19;;;;;;;3.33;3.13;;;;;;;;;;4995284;28;20300;-80
2021/07/11 04:29:46;;;;;;;6.80;3.37;;;;;;;;;;4993944;28;20209;-80
2021/07/11 04:32:13;;;;;;;4.80;3.10;;;;;;;;;;4995093;28;20190;-80
2021/07/11 04:34:40;;;;;;;5.07;3.07;;;;;;;;;;4995364;28;20213;-80
2021/07/11 04:37:11;;;;;;;9.30;3.33;;;;;;;;;;4995120;28;20213;-79
2021/07/11 04:39:38;;;;;;;4.40;2.70;;;;;;;;;;4992908;28;20233;-80
2021/07/11 04:42:05;;;;;;;5.33;3.10;;;;;;;;;;4993448;28;20233;-80
2021/07/11 04:44:32;;;;;;;3.97;2.90;;;;;;;;;;4995113;28;20237;-79
2021/07/11 04:46:59;;;;;;;5.63;2.83;;;;;;;;;;4995213;28;20221;-80
2021/07/11 04:49:25;;;;;;;6.07;2.80;;;;;;;;;;4993715;28;20588;-80
2021/07/11 04:51:52;;;;;;;5.17;2.73;;;;;;;;;;4994438;28;20257;-80
2021/07/11 04:54:21;;;;;;;3.93;2.70;;;;;;;;;;4995052;28;20202;-80
2021/07/11 04:56:48;;;;;;;5.43;2.70;;;;;;;;;;4993341;28;20233;-80
2021/07/11 04:59:14;;;;;;;6.73;3.20;;;;;;;;;;4995095;28;20245;-80
2021/07/11 05:01:41;;;;;;;3.20;2.83;;;;;;;;;;4992606;28;20261;-80
2021/07/11 05:04:08;;;;;;;4.17;2.60;;;;;;;;;;4993433;28;20190;-80
2021/07/11 05:06:34;;;;;;;8.13;2.70;;;;;;;;;;4994631;28;20202;-80
2021/07/11 05:09:01;;;;;;;4.60;2.53;;;;;;;;;;4994714;28;20241;-80
2021/07/11 05:11:29;;;;;;;5.70;2.50;;;;;;;;;;4994618;28;20198;-80
2021/07/11 05:13:56;;;;;;;6.77;2.50;;;;;;;;;;4992980;28;20194;-80
2021/07/11 05:16:23;;;;;;;3.10;2.73;;;;;;;;;;4992820;28;20205;-80
2021/07/11 05:18:49;;;;;;;3.87;2.77;;;;;;;;;;4994066;28;20242;-80
2021/07/11 05:21:16;;;;;;;2.83;2.67;;;;;;;;;;4992880;28;20233;-80
2021/07/11 05:23:43;;;;;;;7.60;3.00;;;;;;;;;;4992632;28;20206;-79
2021/07/11 05:26:10;;;;;;;4.20;2.73;;;;;;;;;;4994117;28;20585;-80
2021/07/11 05:28:39;;;;;;;3.10;2.67;;;;;;;;;;4992601;28;20194;-80
2021/07/11 05:31:06;;;;;;;4.93;2.63;;;;;;;;;;4993927;28;20302;-80
2021/07/11 05:33:33;;;;;;;3.10;2.90;;;;;;;;;;4994187;28;20242;-79
2021/07/11 05:36:00;;;;;;;2.97;2.87;;;;;;;;;;4994428;28;20237;-81
2021/07/11 05:38:27;;;;;;;2.90;2.70;;;;;;;;;;4992505;28;20214;-80
2021/07/11 05:40:54;;;;;;;2.67;2.57;;;;;;;;;;4993787;28;20245;-79
2021/07/11 05:43:20;;;;;;;4.57;2.90;;;;;;;;;;4992089;28;20241;-79
2021/07/11 05:45:48;;;;;;;3.27;3.07;;;;;;;;;;4992319;28;20702;-80
2021/07/11 05:48:15;;;;;;;3.20;3.00;;;;;;;;;;4993924;28;20301;-80
2021/07/11 05:50:42;;;;;;;3.40;3.20;;;;;;;;;;4992983;28;20257;-80
2021/07/11 05:53:10;;;;;;;3.40;3.20;;;;;;;;;;4993809;28;20225;-81
2021/07/11 05:55:37;;;;;;;5.17;3.40;;;;;;;;;;4993516;28;20228;-81
2021/07/11 05:58:04;;;;;;;3.60;3.30;;;;;;;;;;4993594;28;20257;-79
2021/07/11 06:00:30;;;;;;;3.57;3.37;;;;;;;;;;4993932;28;20700;-79
2021/07/11 06:02:59;;;;;;;3.73;3.40;;;;;;;;;;4991706;28;20376;-78
2021/07/11 06:05:25;;;;;;;4.27;3.40;;;;;;;;;;4993218;28;20242;-78
2021/07/11 06:07:52;;;;;;;6.47;4.20;;;;;;;;;;4991949;28;20224;-79
2021/07/11 06:10:19;;;;;;;4.23;3.90;;;;;;;;;;4991808;28;20233;-80
2021/07/11 06:12:46;;;;;;;4.60;4.20;;;;;;;;;;4993146;28;20237;-79
2021/07/11 06:15:13;;;;;;;4.03;3.83;;;;;;;;;;4993226;28;20210;-77
2021/07/11 06:17:39;;;;;;;4.57;4.17;;;;;;;;;;4991561;28;20244;-80
2021/07/11 06:20:08;;;;;;;4.80;4.40;;;;;;;;;;4993100;28;20221;-79
2021/07/11 06:22:35;;;;;;;9.40;4.10;;;;;;;;;;4992594;28;20264;-79
2021/07/11 06:25:06;;;;;;;4.10;3.70;;;;;;;;;;4993066;28;20246;-79
2021/07/11 06:27:33;;;;;;;5.63;4.37;;;;;;;;;;4991794;28;20233;-79
2021/07/11 06:29:59;;;;;;;4.40;4.00;;;;;;;;;;4990973;28;20209;-79
2021/07/11 06:32:26;;;;;;;4.80;4.50;;;;;;;;;;4993115;28;20248;-79
2021/07/11 06:34:53;;;;;;;5.37;4.87;;;;;;;;;;4991163;28;20260;-79
2021/07/11 06:37:21;;;;;;;4.90;4.50;;;;;;;;;;4991219;28;20198;-79
2021/07/11 06:39:47;;;;;;;4.90;4.60;;;;;;;;;;4992506;28;20217;-79
2021/07/11 06:42:14;;;;;;;5.63;4.97;;;;;;;;;;4992739;28;20257;-79
2021/07/11 06:44:41;;;;;;;4.40;4.00;;;;;;;;;;4990628;28;20651;-78
2021/07/11 06:47:08;;;;;;;6.40;4.53;;;;;;;;;;4990519;28;20225;-78
2021/07/11 06:49:34;;;;;;;5.63;4.23;;;;;;;;;;4990189;28;20650;-78
2021/07/11 06:52:01;;;;;;;5.27;4.40;;;;;;;;;;5006872;28;20340;-78
2021/07/11 06:54:29;;;;;;;5.03;4.60;;;;;;;;;;4991880;28;20240;-79
2021/07/11 06:56:56;;;;;;;4.37;4.07;;;;;;;;;;4992017;28;20210;-78
2021/07/11 06:59:22;;;;;;;5.13;4.77;;;;;;;;;;4991743;28;20234;-77
2021/07/11 07:01:50;;;;;;;4.97;4.57;;;;;;;;;;4991660;28;20300;-77
2021/07/11 07:04:16;;;;;;;4.90;4.57;;;;;;;;;;5006824;28;20241;-78
2021/07/11 07:06:43;;;;;;;5.17;4.30;;;;;;;;;;5007180;28;20584;-77
2021/07/11 07:09:10;;;;;;;5.07;4.57;;;;;;;;;;4992318;28;20241;-79
2021/07/11 07:11:38;;;;;;;5.37;4.97;;;;;;;;;;4992043;28;20237;-79
2021/07/11 07:14:04;;;;;;;6.70;4.90;;;;;;;;;;5007513;28;20197;-79
2021/07/11 07:16:31;;;;;;;5.20;4.80;;;;;;;;;;4992004;28;20229;-78
2021/07/11 07:18:58;;;;;;;4.67;4.37;;;;;;;;;;4990515;28;20233;-78
2021/07/11 07:21:24;;;;;;;5.27;4.77;;;;;;;;;;5006741;28;20217;-79
2021/07/11 07:23:51;;;;;;;5.00;4.60;;;;;;;;;;4992791;28;20229;-79
2021/07/11 07:26:18;;;;;;;5.10;4.37;;;;;;;;;;4991373;28;20553;-79
2021/07/11 07:28:46;;;;;;;4.30;4.00;;;;;;;;;;4992641;28;20224;-80
2021/07/11 07:31:12;;;;;;;3.87;3.67;;;;;;;;;;4991009;28;20674;-81
2021/07/11 07:33:39;;;;;;;3.50;3.30;;;;;;;;;;4992870;28;20214;-81
2021/07/11 07:36:06;;;;;;;3.53;3.20;;;;;;;;;;4992437;28;20692;-81
2021/07/11 07:38:33;;;;;;;4.03;3.73;;;;;;;;;;4992791;28;20707;-82
2021/07/11 07:40:59;;;;;;;4.17;3.37;;;;;;;;;;4992910;28;20236;-81
2021/07/11 07:43:26;;;;;;;3.37;3.23;;;;;;;;;;4992471;28;20556;-82
2021/07/11 07:45:54;;;;;;;3.77;3.50;;;;;;;;;;4991358;28;20241;-82
2021/07/11 07:48:21;;;;;;;3.92;3.40;;;;;;;;;;4992881;28;20233;-83
2021/07/11 07:50:47;;;;;;;3.05;2.95;;;;;;;;;;4992888;28;20268;-81
2021/07/11 07:53:14;;;;;;;2.27;2.13;;;;;;;;;;4990511;28;20311;-80
2021/07/11 07:55:41;;;;;;;1.88;1.77;;;;;;;;;;4990855;28;20276;-81
2021/07/11 07:58:08;;;;;;;1.98;1.88;;;;;;;;;;4992702;28;20217;-80
2021/07/11 08:00:34;;;;;;;2.23;2.13;;;;;;;;;;4992207;28;20248;-81
2021/07/11 08:03:02;;;;;;;2.40;2.10;;;;;;;;;;4992050;28;20257;-80
2021/07/11 08:05:29;;;;;;;1.92;1.80;;;;;;;;;;4992274;28;20248;-80
2021/07/11 08:07:56;;;;;;;1.75;1.70;;;;;;;;;;4990867;28;20557;-81
2021/07/11 08:10:22;;;;;;;1.77;1.77;;;;;;;;;;4991986;28;20213;-82
2021/07/11 08:12:49;;;;;;;1.92;1.90;;;;;;;;;;4992544;28;20233;-80
2021/07/11 08:15:17;;;;;;;2.00;2.00;;;;;;;;;;5010950;28;20205;-81
2021/07/11 08:17:44;;;;;;;2.92;2.00;;;;;;;;;;4996125;28;20210;-81
2021/07/11 08:20:13;;;;;;;3.33;1.90;;;;;;;;;;4995589;28;20674;-80
2021/07/11 08:22:39;;;;;;;1.73;1.63;;;;;;;;;;5010415;28;20241;-81
2021/07/11 08:25:08;;;;;;;2.00;1.85;;;;;;;;;;4995787;28;20656;-82
2021/07/11 08:27:35;;;;;;;2.35;1.80;;;;;;;;;;4995721;28;20237;-83
2021/07/11 08:30:02;;;;;;;1.75;1.75;;;;;;;;;;5010826;28;20271;-81
2021/07/11 08:32:28;;;;;;;2.10;2.00;;;;;;;;;;4994241;28;20202;-82
2021/07/11 08:34:55;;;;;;;1.90;1.80;;;;;;;;;;4995800;28;20202;-80
2021/07/11 08:37:23;;;;;;;1.55;1.55;;;;;;;;;;4995619;28;20241;-82
2021/07/11 08:39:50;;;;;;;2.13;1.80;;;;;;;;;;4994316;28;20202;-84
2021/07/11 08:42:18;;;;;;;1.92;1.83;;;;;;;;;;4993961;28;20201;-81
2021/07/11 08:44:45;;;;;;;2.67;1.63;;;;;;;;;;4995821;28;21033;-81
2021/07/11 08:47:12;;;;;;;2.03;1.92;;;;;;;;;;4994548;28;20252;-83
2021/07/11 08:49:38;;;;;;;1.50;1.40;;;;;;;;;;5010360;28;20253;-83
2021/07/11 08:52:05;;;;;;;1.25;1.25;;;;;;;;;;4995409;28;20233;-82
2021/07/11 08:54:36;;;;;;;1.77;1.38;;;;;;;;;;5010298;28;20225;-82
2021/07/11 08:57:04;;;;;;;1.55;1.45;;;;;;;;;;5010362;28;20208;-82
2021/07/11 08:59:31;;;;;;;1.27;1.27;;;;;;;;;;4995463;28;20693;-80
2021/07/11 09:01:58;;;;;;;1.30;1.20;;;;;;;;;;4995689;28;20241;-82
2021/07/11 09:04:25;;;;;;;2.92;1.52;;;;;;;;;;4993472;28;20604;-82
2021/07/11 09:06:54;;;;;;;1.50;1.40;;;;;;;;;;4993774;28;20209;-82
2021/07/11 09:09:24;;;;;;;1.40;1.40;;;;;;;;;;4993924;28;20218;-82
2021/07/11 09:11:53;;;;;;;2.17;1.30;;;;;;;;;;4994002;28;20206;-81
2021/07/11 09:14:20;;;;;;;1.15;1.15;;;;;;;;;;4995087;28;20241;-81
2021/07/11 09:16:47;;;;;;;1.10;1.10;;;;;;;;;;4993747;28;20237;-83
2021/07/11 09:19:24;;;;;;;1.20;1.20;;;;;;;;;;4995078;28;20698;-81
2021/07/11 09:21:52;;;;;;;1.50;1.40;;;;;;;;;;4993858;28;20206;-81
2021/07/11 09:24:19;;;;;;;1.50;1.50;;;;;;;;;;4993122;28;20613;-81
2021/07/11 09:26:46;;;;;;;1.52;1.42;;;;;;;;;;4993325;28;20736;-81
2021/07/11 09:29:23;;;;;;;1.20;1.20;;;;;;;;;;4993405;28;20198;-81
2021/07/11 09:31:50;;;;;;;1.30;1.20;;;;;;;;;;4993429;28;20214;-81
2021/07/11 09:34:20;;;;;;;1.20;1.20;;;;;;;;;;5009510;28;20201;-81
2021/07/11 09:36:49;;;;;;;1.10;1.10;;;;;;;;;;4994272;28;20252;-80
2021/07/11 09:39:16;;;;;;;1.40;1.30;;;;;;;;;;4994489;28;20244;-81
2021/07/11 09:41:42;;;;;;;1.20;1.20;;;;;;;;;;4993460;28;20666;-81
2021/07/11 09:44:09;;;;;;;1.30;1.30;;;;;;;;;;5009168;28;20234;-81
2021/07/11 09:46:37;;;;;;;2.38;1.33;;;;;;;;;;4994426;28;20615;-81
2021/07/11 09:49:05;;;;;;;7.38;1.48;;;;;;;;;;5009690;28;20218;-81
2021/07/11 09:51:32;;;;;;;1.70;1.60;;;;;;;;;;5009190;28;20323;-81
2021/07/11 09:54:08;;;;;;;1.42;1.30;;;;;;;;;;5009434;28;20232;-81
2021/07/11 09:56:35;;;;;;;1.20;1.20;;;;;;;;;;5008955;28;20214;-82
2021/07/11 09:59:04;;;;;;;1.50;1.40;;;;;;;;;;4993944;28;20236;-82
2021/07/11 10:01:31;;;;;;;2.50;1.40;;;;;;;;;;4992064;28;20209;-81
2021/07/11 10:04:00;;;;;;;1.42;1.30;;;;;;;;;;4992528;28;20226;-82
2021/07/11 10:06:27;;;;;;;1.30;1.30;;;;;;;;;;4993954;28;20244;-83
2021/07/11 10:08:54;;;;;;;1.70;1.60;;;;;;;;;;5008951;28;20206;-82
2021/07/11 10:11:21;;;;;;;1.55;1.25;;;;;;;;;;5008984;28;20728;-82
2021/07/11 10:13:48;;;;;;;1.48;1.30;;;;;;;;;;4992414;28;20201;-82
2021/07/11 10:16:15;;;;;;;2.10;1.30;;;;;;;;;;4993877;28;20217;-81
2021/07/11 10:18:43;;;;;;;2.05;1.42;;;;;;;;;;4993767;28;20248;-82
2021/07/11 10:21:12;;;;;;;1.70;1.60;;;;;;;;;;4991878;28;20689;-81
2021/07/11 10:23:39;;;;;;;1.45;1.42;;;;;;;;;;4993634;28;20245;-81
2021/07/11 10:26:07;;;;;;;1.20;1.20;;;;;;;;;;4993729;28;20245;-81
2021/07/11 10:28:35;;;;;;;1.40;1.33;;;;;;;;;;4992155;28;20582;-82
2021/07/11 10:31:02;;;;;;;1.42;1.42;;;;;;;;;;4992003;28;20206;-84
2021/07/11 10:33:30;;;;;;;1.55;1.55;;;;;;;;;;4993725;28;20240;-82
2021/07/11 10:35:57;;;;;;;1.95;1.30;;;;;;;;;;5007526;28;20210;-81
2021/07/11 10:38:32;;;;;;;1.30;1.30;;;;;;;;;;4991795;28;20205;-80
2021/07/11 10:41:18;;;;;;;2.50;1.95;;;;;;;;;;4993267;28;20209;-82
2021/07/11 10:43:47;;;;;;;1.40;1.40;;;;;;;;;;5008253;28;20232;-81
2021/07/11 10:46:13;;;;;;;1.50;1.40;;;;;;;;;;4993236;28;20239;-79
2021/07/11 10:48:40;;;;;;;1.20;1.20;;;;;;;;;;5008139;28;20225;-82
2021/07/11 10:51:18;;;;;;;1.45;1.45;;;;;;;;;;4993049;28;20257;-82
2021/07/11 10:53:46;;;;;;;1.42;1.42;;;;;;;;;;5008165;28;20259;-81
2021/07/11 10:56:18;;;;;;;1.70;1.60;;;;;;;;;;4993190;28;20209;-82
2021/07/11 10:58:47;;;;;;;1.60;1.60;;;;;;;;;;4991910;28;20607;-81
2021/07/11 11:01:19;;;;;;;1.50;1.40;;;;;;;;;;4992806;28;20241;-81
2021/07/11 11:03:47;;;;;;;1.50;1.50;;;;;;;;;;4991864;28;20219;-81
2021/07/11 11:06:15;;;;;;;2.00;1.90;;;;;;;;;;4993449;28;20302;-82
2021/07/11 11:08:43;;;;;;;1.80;1.80;;;;;;;;;;4993122;28;20209;-82
2021/07/11 11:11:11;;;;;;;1.52;1.52;;;;;;;;;;5007998;28;20190;-82
2021/07/11 11:13:38;;;;;;;1.63;1.63;;;;;;;;;;4992854;28;20221;-82
2021/07/11 11:16:14;;;;;;;2.03;1.92;;;;;;;;;;4992910;28;20237;-81
2021/07/11 11:18:43;;;;;;;1.85;1.70;;;;;;;;;;4992725;28;20243;-80
2021/07/11 11:21:13;;;;;;;1.50;1.40;;;;;;;;;;4993131;28;20244;-80
2021/07/11 11:23:43;;;;;;;1.45;1.45;;;;;;;;;;4991391;28;20244;-80
2021/07/11 11:26:17;;;;;;;1.40;1.40;;;;;;;;;;4992489;28;20249;-79
2021/07/11 11:28:44;;;;;;;1.45;1.45;;;;;;;;;;4991178;28;20220;-79
2021/07/11 11:31:11;;;;;;;1.40;1.30;;;;;;;;;;5007167;28;20233;-80
2021/07/11 11:33:51;;;;;;;2.13;1.60;;;;;;;;;;4991985;28;20241;-81
2021/07/11 11:36:19;;;;;;;3.25;1.65;;;;;;;;;;4992312;28;20248;-80
2021/07/11 11:38:46;;;;;;;3.35;1.52;;;;;;;;;;4991931;28;20217;-80
2021/07/11 11:41:16;;;;;;;1.85;1.75;;;;;;;;;;4991819;28;20264;-80
2021/07/11 11:43:44;;;;;;;2.55;1.70;;;;;;;;;;4991831;28;20206;-80
2021/07/11 11:46:22;;;;;;;1.88;1.77;;;;;;;;;;4991351;28;20685;-80
2021/07/11 11:48:53;;;;;;;1.63;1.52;;;;;;;;;;5008769;28;20206;-80
2021/07/11 11:51:20;;;;;;;1.75;1.65;;;;;;;;;;4993968;28;20253;-79
2021/07/11 11:53:46;;;;;;;1.67;1.58;;;;;;;;;;5010415;28;20194;-80
2021/07/11 11:56:14;;;;;;;1.67;1.60;;;;;;;;;;4994127;28;20726;-80
2021/07/11 11:58:41;;;;;;;1.80;1.70;;;;;;;;;;4993840;28;20268;-80
2021/07/11 12:01:11;;;;;;;1.88;1.75;;;;;;;;;;4995544;28;20865;-80
2021/07/11 12:03:39;;;;;;;3.58;2.00;;;;;;;;;;4995694;28;20252;-80
2021/07/11 12:06:06;;;;;;;1.70;1.70;;;;;;;;;;5009953;28;20555;-80
2021/07/11 12:08:33;;;;;;;3.35;1.80;;;;;;;;;;5010008;28;20221;-79
2021/07/11 12:11:00;;;;;;;1.92;1.88;;;;;;;;;;5009587;28;20237;-79
2021/07/11 12:13:29;;;;;;;1.90;1.77;;;;;;;;;;4995073;28;20283;-81
2021/07/11 12:16:03;;;;;;;1.63;1.63;;;;;;;;;;5009512;28;20284;-79
2021/07/11 12:18:41;;;;;;;1.70;1.60;;;;;;;;;;4994966;28;20747;-80
2021/07/11 12:21:07;;;;;;;1.77;1.70;;;;;;;;;;4994951;28;20692;-80
2021/07/11 12:23:34;;;;;;;2.90;1.80;;;;;;;;;;4993821;28;20291;-80
2021/07/11 12:26:03;;;;;;;2.03;1.75;;;;;;;;;;4994882;28;20768;-80
2021/07/11 12:28:32;;;;;;;1.60;1.60;;;;;;;;;;4995113;28;20248;-80
2021/07/11 12:30:59;;;;;;;1.73;1.52;;;;;;;;;;5010255;28;20287;-80
2021/07/11 12:33:27;;;;;;;1.70;1.70;;;;;;;;;;4994939;28;20221;-80
2021/07/11 12:35:58;;;;;;;2.42;1.50;;;;;;;;;;4995475;28;20240;-80
2021/07/11 12:38:33;;;;;;;1.80;1.75;;;;;;;;;;4994981;28;20202;-81
2021/07/11 12:41:00;;;;;;;2.88;1.58;;;;;;;;;;4995099;28;20263;-81
2021/07/11 12:43:31;;;;;;;2.92;1.52;;;;;;;;;;4995354;28;20252;-80
2021/07/11 12:46:00;;;;;;;1.52;1.52;;;;;;;;;;4993502;28;20276;-79
2021/07/11 12:48:39;;;;;;;1.55;1.45;;;;;;;;;;4995194;28;20237;-80
2021/07/11 12:51:17;;;;;;;1.55;1.52;;;;;;;;;;5009601;28;20364;-81
2021/07/11 12:53:44;;;;;;;1.67;1.58;;;;;;;;;;4995211;28;20245;-81
2021/07/11 12:56:13;;;;;;;1.77;1.77;;;;;;;;;;4994951;28;20240;-80
2021/07/11 12:58:42;;;;;;;2.15;1.60;;;;;;;;;;4993438;28;20260;-81
2021/07/11 13:01:10;;;;;;;1.90;1.90;;;;;;;;;;4995278;28;20253;-83
2021/07/11 13:03:37;;;;;;;1.75;1.65;;;;;;;;;;4993369;28;20740;-84
2021/07/11 13:06:04;;;;;;;1.60;1.50;;;;;;;;;;4993552;28;20626;-83
2021/07/11 13:08:31;;;;;;;1.42;1.42;;;;;;;;;;4994640;28;20244;-83
2021/07/11 13:10:58;;;;;;;1.70;1.60;;;;;;;;;;4994837;28;20241;-82
2021/07/11 13:13:24;;;;;;;3.05;1.70;;;;;;;;;;4994074;28;20248;-83
2021/07/11 13:15:51;;;;;;;1.77;1.77;;;;;;;;;;5009524;28;20202;-82
2021/07/11 13:18:19;;;;;;;1.83;1.83;;;;;;;;;;5010099;28;20751;-81
2021/07/11 13:20:46;;;;;;;1.85;1.70;;;;;;;;;;4995147;28;20238;-83
2021/07/11 13:23:12;;;;;;;1.80;1.70;;;;;;;;;;4993771;28;20260;-82
2021/07/11 13:25:42;;;;;;;1.90;1.80;;;;;;;;;;4992508;28;20253;-82
2021/07/11 13:28:09;;;;;;;3.70;1.80;;;;;;;;;;4994244;28;20229;-80
2021/07/11 13:30:36;;;;;;;1.67;1.67;;;;;;;;;;4994773;28;20212;-80
2021/07/11 13:33:02;;;;;;;1.77;1.67;;;;;;;;;;4994112;28;20248;-83
2021/07/11 13:35:31;;;;;;;1.73;1.63;;;;;;;;;;4992312;28;20654;-83
2021/07/11 13:37:57;;;;;;;2.50;1.77;;;;;;;;;;5009490;28;20616;-82
2021/07/11 13:40:24;;;;;;;2.45;1.70;;;;;;;;;;4994954;28;20178;-82
2021/07/11 13:42:51;;;;;;;1.77;1.67;;;;;;;;;;4992936;28;20230;-82
2021/07/11 13:45:19;;;;;;;3.15;1.70;;;;;;;;;;4993201;28;20713;-82
2021/07/11 13:47:46;;;;;;;5.03;1.80;;;;;;;;;;4994691;28;20244;-82
2021/07/11 13:50:14;;;;;;;2.65;1.70;;;;;;;;;;4992738;28;20617;-82
2021/07/11 13:52:42;;;;;;;3.03;1.70;;;;;;;;;;4994040;28;20308;-82
2021/07/11 13:55:09;;;;;;;2.22;1.98;;;;;;;;;;5009334;28;20545;-82
2021/07/11 13:57:37;;;;;;;1.65;1.65;;;;;;;;;;4993914;28;20690;-82
2021/07/11 14:00:05;;;;;;;2.97;1.63;;;;;;;;;;4992886;28;20206;-81
2021/07/11 14:02:32;;;;;;;2.88;1.75;;;;;;;;;;4992404;28;20248;-81
2021/07/11 14:04:58;;;;;;;2.00;1.90;;;;;;;;;;4993937;28;20237;-81
2021/07/11 14:07:25;;;;;;;2.88;1.80;;;;;;;;;;4994315;28;20252;-82
2021/07/11 14:09:53;;;;;;;1.70;1.60;;;;;;;;;;5009398;28;20214;-81
2021/07/11 14:12:20;;;;;;;1.60;1.60;;;;;;;;;;5008126;28;20202;-81
2021/07/11 14:14:46;;;;;;;1.48;1.48;;;;;;;;;;4994182;28;20241;-82
2021/07/11 14:17:13;;;;;;;2.38;1.73;;;;;;;;;;5008921;28;20205;-81
2021/07/11 14:19:40;;;;;;;1.45;1.38;;;;;;;;;;4993752;28;20283;-83
2021/07/11 14:22:06;;;;;;;1.75;1.75;;;;;;;;;;5008695;28;20252;-83
2021/07/11 14:24:34;;;;;;;1.60;1.60;;;;;;;;;;4992500;28;20208;-83
2021/07/11 14:27:02;;;;;;;1.77;1.67;;;;;;;;;;4992685;28;20597;-84
2021/07/11 14:29:28;;;;;;;1.70;1.65;;;;;;;;;;4994155;28;20197;-87
2021/07/11 14:31:55;;;;;;;1.70;1.60;;;;;;;;;;4995177;28;20189;-88
2021/07/11 14:34:22;;;;;;;2.17;1.80;;;;;;;;;;4995277;28;20182;-85
2021/07/11 14:36:48;;;;;;;1.50;1.50;;;;;;;;;;5009063;28;20216;-85
2021/07/11 14:39:15;;;;;;;2.17;1.60;;;;;;;;;;4992966;28;20236;-85
2021/07/11 14:41:42;;;;;;;1.58;1.48;;;;;;;;;;4994476;28;20673;-83
2021/07/11 14:44:10;;;;;;;2.17;1.80;;;;;;;;;;4993599;28;20210;-83
2021/07/11 14:46:37;;;;;;;1.92;1.83;;;;;;;;;;4993761;28;20229;-82